sensor_id;sensor_type;location;lat;lon;timestamp;P1;durP1;ratioP1;P2;durP2;ratioP2
14096;SDS011;7125;48.106;11.544;2023-04-25T02:34:09;2.60;;;1.73;;
14096;SDS011;7125;48.106;11.544;2023-04-25T02:36:37;1.50;;;1.40;;
14096;SDS011;7125;48.106;11.544;2023-04-25T02:39:05;1.80;;;1.70;;
14096;SDS011;7125;48.106;11.544;2023-04-25T02:41:32;5.07;;;2.40;;
14096;SDS011;7125;48.106;11.544;2023-04-25T02:43:59;2.80;;;1.90;;
14096;SDS011;7125;48.106;11.544;2023-04-25T02:46:26;4.07;;;1.90;;
14096;SDS011;7125;48.106;11.544;2023-04-25T02:48:53;3.10;;;2.30;;
14096;SDS011;7125;48.106;11.544;2023-04-25T02:51:21;1.63;;;1.30;;
14096;SDS011;7125;48.106;11.544;2023-04-25T02:53:48;4.70;;;2.17;;
14096;SDS011;7125;48.106;11.544;2023-04-25T02:56:16;3.97;;;2.20;;
14096;SDS011;7125;48.106;11.544;2023-04-25T02:58:43;5.50;;;1.97;;
14096;SDS011;7125;48.106;11.544;2023-04-25T03:01:10;2.30;;;1.80;;
14096;SDS011;7125;48.106;11.544;2023-04-25T03:03:37;3.07;;;2.20;;
14096;SDS011;7125;48.106;11.544;2023-04-25T03:06:05;2.97;;;2.20;;
14096;SDS011;7125;48.106;11.544;2023-04-25T03:08:33;3.60;;;2.13;;
14096;SDS011;7125;48.106;11.544;2023-04-25T03:11:01;5.30;;;2.10;;
14096;SDS011;7125;48.106;11.544;2023-04-25T03:13:28;2.33;;;1.80;;
14096;SDS011;7125;48.106;11.544;2023-04-25T03:15:56;3.70;;;1.73;;
14096;SDS011;7125;48.106;11.544;2023-04-25T03:18:23;2.20;;;1.60;;
14096;SDS011;7125;48.106;11.544;2023-04-25T03:20:50;5.93;;;2.10;;
14096;SDS011;7125;48.106;11.544;2023-04-25T03:23:17;1.73;;;1.57;;
14096;SDS011;7125;48.106;11.544;2023-04-25T03:25:46;3.13;;;2.10;;
14096;SDS011;7125;48.106;11.544;2023-04-25T03:28:13;6.13;;;2.20;;
14096;SDS011;7125;48.106;11.544;2023-04-25T03:30:40;3.93;;;2.00;;
14096;SDS011;7125;48.106;11.544;2023-04-25T03:33:08;3.50;;;1.53;;
14096;SDS011;7125;48.106;11.544;2023-04-25T03:35:35;2.57;;;1.67;;
14096;SDS011;7125;48.106;11.544;2023-04-25T03:38:03;2.83;;;1.77;;
14096;SDS011;7125;48.106;11.544;2023-04-25T03:40:35;3.47;;;1.80;;
14096;SDS011;7125;48.106;11.544;2023-04-25T03:43:18;1.63;;;1.53;;
14096;SDS011;7125;48.106;11.544;2023-04-25T03:45:51;1.60;;;1.43;;
14096;SDS011;7125;48.106;11.544;2023-04-25T03:48:21;2.37;;;1.50;;
14096;SDS011;7125;48.106;11.544;2023-04-25T03:50:50;2.10;;;1.67;;
14096;SDS011;7125;48.106;11.544;2023-04-25T03:53:18;4.30;;;1.90;;
14096;SDS011;7125;48.106;11.544;2023-04-25T03:56:18;5.90;;;1.70;;
14096;SDS011;7125;48.106;11.544;2023-04-25T03:58:48;1.30;;;1.20;;
14096;SDS011;7125;48.106;11.544;2023-04-25T04:01:17;1.50;;;1.40;;
14096;SDS011;7125;48.106;11.544;2023-04-25T04:03:44;1.80;;;1.30;;
14096;SDS011;7125;48.106;11.544;2023-04-25T04:06:11;1.07;;;0.97;;
14096;SDS011;7125;48.106;11.544;2023-04-25T04:08:41;2.97;;;1.87;;
14096;SDS011;7125;48.106;11.544;2023-04-25T04:11:09;2.03;;;1.87;;
14096;SDS011;7125;48.106;11.544;2023-04-25T04:13:37;2.90;;;1.57;;
14096;SDS011;7125;48.106;11.544;2023-04-25T04:16:06;1.60;;;1.50;;
14096;SDS011;7125;48.106;11.544;2023-04-25T04:18:34;2.20;;;2.00;;
14096;SDS011;7125;48.106;11.544;2023-04-25T04:21:01;2.07;;;1.87;;
14096;SDS011;7125;48.106;11.544;2023-04-25T04:23:32;3.80;;;1.70;;
14096;SDS011;7125;48.106;11.544;2023-04-25T05:25:22;2.43;;;2.23;;
14096;SDS011;7125;48.106;11.544;2023-04-25T05:28:12;4.53;;;3.63;;
14096;SDS011;7125;48.106;11.544;2023-04-25T05:31:02;5.53;;;2.30;;
14096;SDS011;7125;48.106;11.544;2023-04-25T05:33:43;16.70;;;8.93;;
14096;SDS011;7125;48.106;11.544;2023-04-25T05:36:12;5.40;;;3.80;;
14096;SDS011;7125;48.106;11.544;2023-04-25T05:39:02;2.97;;;2.00;;
14096;SDS011;7125;48.106;11.544;2023-04-25T05:41:54;2.33;;;2.13;;
14096;SDS011;7125;48.106;11.544;2023-04-25T05:52:53;2.20;;;1.80;;
14096;SDS011;7125;48.106;11.544;2023-04-25T05:58:12;3.27;;;2.43;;
14096;SDS011;7125;48.106;11.544;2023-04-25T06:03:17;3.00;;;2.07;;
14096;SDS011;7125;48.106;11.544;2023-04-25T06:05:45;2.77;;;1.90;;
14096;SDS011;7125;48.106;11.544;2023-04-25T06:08:12;2.57;;;2.37;;
14096;SDS011;7125;48.106;11.544;2023-04-25T06:10:39;2.37;;;2.17;;
14096;SDS011;7125;48.106;11.544;2023-04-25T06:13:06;4.20;;;2.00;;
14096;SDS011;7125;48.106;11.544;2023-04-25T06:15:44;3.20;;;2.53;;
14096;SDS011;7125;48.106;11.544;2023-04-25T06:18:11;2.73;;;2.20;;
14096;SDS011;7125;48.106;11.544;2023-04-25T06:20:38;4.20;;;2.27;;
14096;SDS011;7125;48.106;11.544;2023-04-25T06:23:06;2.53;;;2.33;;
14096;SDS011;7125;48.106;11.544;2023-04-25T06:25:44;4.27;;;2.67;;
14096;SDS011;7125;48.106;11.544;2023-04-25T06:28:11;4.10;;;2.50;;
14096;SDS011;7125;48.106;11.544;2023-04-25T06:30:39;8.43;;;2.97;;
14096;SDS011;7125;48.106;11.544;2023-04-25T06:33:12;5.33;;;2.63;;
14096;SDS011;7125;48.106;11.544;2023-04-25T06:35:40;8.27;;;2.93;;
14096;SDS011;7125;48.106;11.544;2023-04-25T06:38:10;6.07;;;3.10;;
14096;SDS011;7125;48.106;11.544;2023-04-25T06:40:39;4.23;;;3.57;;
14096;SDS011;7125;48.106;11.544;2023-04-25T06:43:08;4.67;;;3.43;;
14096;SDS011;7125;48.106;11.544;2023-04-25T06:46:03;4.77;;;3.27;;
14096;SDS011;7125;48.106;11.544;2023-04-25T06:48:34;5.80;;;3.40;;
14096;SDS011;7125;48.106;11.544;2023-04-25T06:51:01;4.60;;;3.17;;
14096;SDS011;7125;48.106;11.544;2023-04-25T06:53:30;4.47;;;3.27;;
14096;SDS011;7125;48.106;11.544;2023-04-25T06:56:01;5.43;;;3.00;;
14096;SDS011;7125;48.106;11.544;2023-04-25T06:58:39;5.37;;;3.40;;
14096;SDS011;7125;48.106;11.544;2023-04-25T07:01:11;3.63;;;2.93;;
14096;SDS011;7125;48.106;11.544;2023-04-25T07:03:40;3.77;;;2.50;;
14096;SDS011;7125;48.106;11.544;2023-04-25T07:06:14;6.20;;;3.03;;
14096;SDS011;7125;48.106;11.544;2023-04-25T07:08:43;4.77;;;2.93;;
14096;SDS011;7125;48.106;11.544;2023-04-25T07:11:11;7.07;;;2.73;;
14096;SDS011;7125;48.106;11.544;2023-04-25T07:13:41;2.87;;;2.67;;
14096;SDS011;7125;48.106;11.544;2023-04-25T07:16:09;6.17;;;3.00;;
14096;SDS011;7125;48.106;11.544;2023-04-25T07:18:36;4.70;;;2.70;;
14096;SDS011;7125;48.106;11.544;2023-04-25T07:21:05;4.80;;;3.30;;
14096;SDS011;7125;48.106;11.544;2023-04-25T07:23:35;4.80;;;2.90;;
14096;SDS011;7125;48.106;11.544;2023-04-25T07:26:08;5.77;;;3.23;;
14096;SDS011;7125;48.106;11.544;2023-04-25T07:28:46;2.17;;;1.97;;
14096;SDS011;7125;48.106;11.544;2023-04-25T07:31:16;5.67;;;2.87;;
14096;SDS011;7125;48.106;11.544;2023-04-25T07:33:49;2.70;;;2.50;;
14096;SDS011;7125;48.106;11.544;2023-04-25T07:36:20;4.43;;;2.93;;
14096;SDS011;7125;48.106;11.544;2023-04-25T07:38:52;3.50;;;2.80;;
14096;SDS011;7125;48.106;11.544;2023-04-25T07:41:20;3.70;;;2.80;;
14096;SDS011;7125;48.106;11.544;2023-04-25T07:43:48;3.77;;;3.07;;
14096;SDS011;7125;48.106;11.544;2023-04-25T07:46:16;7.70;;;3.93;;
14096;SDS011;7125;48.106;11.544;2023-04-25T07:48:45;4.70;;;3.17;;
14096;SDS011;7125;48.106;11.544;2023-04-25T07:51:12;10.00;;;3.67;;
14096;SDS011;7125;48.106;11.544;2023-04-25T07:53:43;9.03;;;4.20;;
14096;SDS011;7125;48.106;11.544;2023-04-25T07:56:13;8.77;;;4.17;;
14096;SDS011;7125;48.106;11.544;2023-04-25T07:58:46;5.33;;;3.67;;
14096;SDS011;7125;48.106;11.544;2023-04-25T08:06:43;5.30;;;3.97;;
14096;SDS011;7125;48.106;11.544;2023-04-25T08:09:19;4.13;;;3.17;;
14096;SDS011;7125;48.106;11.544;2023-04-25T08:11:48;5.10;;;3.53;;
14096;SDS011;7125;48.106;11.544;2023-04-25T08:14:33;5.90;;;3.10;;
14096;SDS011;7125;48.106;11.544;2023-04-25T08:17:05;5.27;;;2.83;;
14096;SDS011;7125;48.106;11.544;2023-04-25T08:22:28;3.97;;;2.53;;
14096;SDS011;7125;48.106;11.544;2023-04-25T08:25:28;4.37;;;2.30;;
14096;SDS011;7125;48.106;11.544;2023-04-25T08:33:13;3.67;;;2.13;;
14096;SDS011;7125;48.106;11.544;2023-04-25T08:36:01;4.57;;;2.47;;
14096;SDS011;7125;48.106;11.544;2023-04-25T08:38:31;5.53;;;2.07;;
14096;SDS011;7125;48.106;11.544;2023-04-25T08:41:01;2.57;;;2.10;;
14096;SDS011;7125;48.106;11.544;2023-04-25T08:43:31;10.93;;;2.73;;
14096;SDS011;7125;48.106;11.544;2023-04-25T08:46:01;5.17;;;2.73;;
14096;SDS011;7125;48.106;11.544;2023-04-25T08:48:51;3.23;;;2.77;;
14096;SDS011;7125;48.106;11.544;2023-04-25T08:51:22;6.57;;;2.67;;
14096;SDS011;7125;48.106;11.544;2023-04-25T08:53:50;3.83;;;2.40;;
14096;SDS011;7125;48.106;11.544;2023-04-25T08:56:20;3.23;;;1.60;;
14096;SDS011;7125;48.106;11.544;2023-04-25T08:58:48;2.00;;;1.60;;
14096;SDS011;7125;48.106;11.544;2023-04-25T09:01:16;2.03;;;1.77;;
14096;SDS011;7125;48.106;11.544;2023-04-25T09:03:50;6.37;;;2.23;;
14096;SDS011;7125;48.106;11.544;2023-04-25T09:06:46;2.23;;;1.77;;
14096;SDS011;7125;48.106;11.544;2023-04-25T09:09:14;2.67;;;1.80;;
14096;SDS011;7125;48.106;11.544;2023-04-25T09:11:42;2.50;;;1.60;;
14096;SDS011;7125;48.106;11.544;2023-04-25T09:14:12;1.97;;;1.80;;
14096;SDS011;7125;48.106;11.544;2023-04-25T09:16:57;2.97;;;1.40;;
14096;SDS011;7125;48.106;11.544;2023-04-25T09:19:40;4.27;;;1.50;;
14096;SDS011;7125;48.106;11.544;2023-04-25T09:22:20;5.20;;;1.90;;
14096;SDS011;7125;48.106;11.544;2023-04-25T09:24:48;3.90;;;1.60;;
14096;SDS011;7125;48.106;11.544;2023-04-25T09:27:19;2.03;;;1.53;;
14096;SDS011;7125;48.106;11.544;2023-04-25T09:29:56;5.20;;;1.87;;
14096;SDS011;7125;48.106;11.544;2023-04-25T09:32:25;3.67;;;1.50;;
14096;SDS011;7125;48.106;11.544;2023-04-25T09:34:55;4.53;;;1.33;;
14096;SDS011;7125;48.106;11.544;2023-04-25T09:37:26;4.07;;;1.83;;
14096;SDS011;7125;48.106;11.544;2023-04-25T09:40:12;1.67;;;1.20;;
14096;SDS011;7125;48.106;11.544;2023-04-25T09:42:57;2.80;;;1.30;;
14096;SDS011;7125;48.106;11.544;2023-04-25T09:45:25;3.03;;;1.43;;
14096;SDS011;7125;48.106;11.544;2023-04-25T09:47:55;3.93;;;1.70;;
14096;SDS011;7125;48.106;11.544;2023-04-25T09:50:26;1.80;;;1.27;;
14096;SDS011;7125;48.106;11.544;2023-04-25T09:53:02;1.37;;;1.10;;
14096;SDS011;7125;48.106;11.544;2023-04-25T09:55:42;1.80;;;1.30;;
14096;SDS011;7125;48.106;11.544;2023-04-25T09:58:13;1.93;;;1.20;;
14096;SDS011;7125;48.106;11.544;2023-04-25T10:00:41;2.47;;;1.20;;
14096;SDS011;7125;48.106;11.544;2023-04-25T10:03:21;2.87;;;1.40;;
14096;SDS011;7125;48.106;11.544;2023-04-25T10:06:07;2.70;;;1.40;;
14096;SDS011;7125;48.106;11.544;2023-04-25T10:08:38;1.63;;;1.20;;
14096;SDS011;7125;48.106;11.544;2023-04-25T10:11:10;1.53;;;1.20;;
14096;SDS011;7125;48.106;11.544;2023-04-25T10:13:43;1.33;;;1.10;;
14096;SDS011;7125;48.106;11.544;2023-04-25T10:16:13;1.53;;;1.43;;
14096;SDS011;7125;48.106;11.544;2023-04-25T10:18:41;2.30;;;1.13;;
14096;SDS011;7125;48.106;11.544;2023-04-25T10:21:08;2.43;;;1.53;;
14096;SDS011;7125;48.106;11.544;2023-04-25T10:23:37;3.27;;;1.57;;
14096;SDS011;7125;48.106;11.544;2023-04-25T10:26:05;2.23;;;1.33;;
14096;SDS011;7125;48.106;11.544;2023-04-25T10:34:07;1.70;;;1.10;;
14096;SDS011;7125;48.106;11.544;2023-04-25T10:36:36;3.30;;;1.00;;
14096;SDS011;7125;48.106;11.544;2023-04-25T10:39:04;2.77;;;1.47;;
14096;SDS011;7125;48.106;11.544;2023-04-25T10:44:24;0.90;;;0.73;;
14096;SDS011;7125;48.106;11.544;2023-04-25T10:46:54;1.73;;;1.10;;
14096;SDS011;7125;48.106;11.544;2023-04-25T10:49:28;2.27;;;1.27;;
14096;SDS011;7125;48.106;11.544;2023-04-25T10:52:11;1.23;;;0.80;;
14096;SDS011;7125;48.106;11.544;2023-04-25T10:54:57;0.77;;;0.73;;
14096;SDS011;7125;48.106;11.544;2023-04-25T10:57:27;1.50;;;1.00;;
14096;SDS011;7125;48.106;11.544;2023-04-25T11:02:51;2.50;;;1.13;;
14096;SDS011;7125;48.106;11.544;2023-04-25T11:05:27;5.03;;;1.47;;
14096;SDS011;7125;48.106;11.544;2023-04-25T11:08:00;2.50;;;1.17;;
14096;SDS011;7125;48.106;11.544;2023-04-25T11:10:28;2.37;;;1.40;;
14096;SDS011;7125;48.106;11.544;2023-04-25T11:13:06;2.27;;;1.27;;
14096;SDS011;7125;48.106;11.544;2023-04-25T11:15:40;1.77;;;1.33;;
14096;SDS011;7125;48.106;11.544;2023-04-25T11:18:08;2.73;;;1.30;;
14096;SDS011;7125;48.106;11.544;2023-04-25T11:20:38;0.63;;;0.63;;
14096;SDS011;7125;48.106;11.544;2023-04-25T11:23:11;3.03;;;1.60;;
14096;SDS011;7125;48.106;11.544;2023-04-25T11:25:39;3.03;;;0.90;;
14096;SDS011;7125;48.106;11.544;2023-04-25T11:28:06;3.50;;;0.97;;
14096;SDS011;7125;48.106;11.544;2023-04-25T11:30:35;1.63;;;0.80;;
14096;SDS011;7125;48.106;11.544;2023-04-25T11:33:03;1.00;;;1.00;;
14096;SDS011;7125;48.106;11.544;2023-04-25T11:35:32;1.77;;;0.90;;
14096;SDS011;7125;48.106;11.544;2023-04-25T11:38:01;1.77;;;1.40;;
14096;SDS011;7125;48.106;11.544;2023-04-25T11:40:30;1.90;;;1.40;;
14096;SDS011;7125;48.106;11.544;2023-04-25T11:42:59;4.03;;;1.50;;
14096;SDS011;7125;48.106;11.544;2023-04-25T11:45:27;1.73;;;1.17;;
14096;SDS011;7125;48.106;11.544;2023-04-25T11:47:59;1.23;;;0.90;;
14096;SDS011;7125;48.106;11.544;2023-04-25T11:50:29;1.70;;;1.60;;
14096;SDS011;7125;48.106;11.544;2023-04-25T11:52:57;1.87;;;1.70;;
14096;SDS011;7125;48.106;11.544;2023-04-25T11:55:29;2.63;;;1.73;;
14096;SDS011;7125;48.106;11.544;2023-04-25T11:57:59;2.63;;;2.20;;
14096;SDS011;7125;48.106;11.544;2023-04-25T12:00:27;4.77;;;1.50;;
14096;SDS011;7125;48.106;11.544;2023-04-25T12:02:54;1.57;;;1.10;;
14096;SDS011;7125;48.106;11.544;2023-04-25T12:05:30;2.33;;;0.97;;
14096;SDS011;7125;48.106;11.544;2023-04-25T12:07:58;1.53;;;1.10;;
14096;SDS011;7125;48.106;11.544;2023-04-25T12:10:39;1.07;;;0.97;;
14096;SDS011;7125;48.106;11.544;2023-04-25T12:13:17;1.47;;;0.83;;
14096;SDS011;7125;48.106;11.544;2023-04-25T12:15:49;1.13;;;1.07;;
14096;SDS011;7125;48.106;11.544;2023-04-25T12:18:19;1.53;;;1.43;;
14096;SDS011;7125;48.106;11.544;2023-04-25T12:20:53;1.03;;;0.83;;
14096;SDS011;7125;48.106;11.544;2023-04-25T12:23:27;2.00;;;0.83;;
14096;SDS011;7125;48.106;11.544;2023-04-25T12:26:01;3.03;;;1.43;;
14096;SDS011;7125;48.106;11.544;2023-04-25T12:28:31;1.00;;;0.70;;
14096;SDS011;7125;48.106;11.544;2023-04-25T12:30:59;0.77;;;0.77;;
14096;SDS011;7125;48.106;11.544;2023-04-25T12:33:28;1.37;;;0.87;;
14096;SDS011;7125;48.106;11.544;2023-04-25T12:35:59;0.73;;;0.60;;
14096;SDS011;7125;48.106;11.544;2023-04-25T12:38:35;0.67;;;0.67;;
14096;SDS011;7125;48.106;11.544;2023-04-25T12:41:06;0.60;;;0.50;;
14096;SDS011;7125;48.106;11.544;2023-04-25T12:43:47;0.57;;;0.57;;
14096;SDS011;7125;48.106;11.544;2023-04-25T12:46:15;1.60;;;0.53;;
14096;SDS011;7125;48.106;11.544;2023-04-25T12:48:44;1.00;;;0.60;;
14096;SDS011;7125;48.106;11.544;2023-04-25T12:51:15;0.73;;;0.67;;
14096;SDS011;7125;48.106;11.544;2023-04-25T12:53:42;1.33;;;0.93;;
14096;SDS011;7125;48.106;11.544;2023-04-25T12:56:10;1.13;;;0.50;;
14096;SDS011;7125;48.106;11.544;2023-04-25T12:58:37;1.83;;;0.50;;
14096;SDS011;7125;48.106;11.544;2023-04-25T13:01:05;0.33;;;0.33;;
14096;SDS011;7125;48.106;11.544;2023-04-25T13:03:34;0.70;;;0.70;;
14096;SDS011;7125;48.106;11.544;2023-04-25T13:06:04;0.50;;;0.40;;
14096;SDS011;7125;48.106;11.544;2023-04-25T13:08:34;0.57;;;0.40;;
14096;SDS011;7125;48.106;11.544;2023-04-25T13:11:02;0.70;;;0.50;;
14096;SDS011;7125;48.106;11.544;2023-04-25T13:13:30;0.40;;;0.40;;
14096;SDS011;7125;48.106;11.544;2023-04-25T13:15:59;0.30;;;0.30;;
14096;SDS011;7125;48.106;11.544;2023-04-25T13:18:27;0.40;;;0.33;;
14096;SDS011;7125;48.106;11.544;2023-04-25T13:20:55;0.47;;;0.47;;
14096;SDS011;7125;48.106;11.544;2023-04-25T13:23:28;1.47;;;0.70;;
14096;SDS011;7125;48.106;11.544;2023-04-25T13:25:58;1.10;;;1.00;;
14096;SDS011;7125;48.106;11.544;2023-04-25T13:28:26;2.30;;;0.90;;
14096;SDS011;7125;48.106;11.544;2023-04-25T13:30:59;0.63;;;0.60;;
14096;SDS011;7125;48.106;11.544;2023-04-25T13:33:27;2.00;;;1.83;;
14096;SDS011;7125;48.106;11.544;2023-04-25T13:35:56;1.33;;;1.00;;
14096;SDS011;7125;48.106;11.544;2023-04-25T13:38:25;0.50;;;0.50;;
14096;SDS011;7125;48.106;11.544;2023-04-25T13:40:53;3.50;;;2.40;;
14096;SDS011;7125;48.106;11.544;2023-04-25T13:43:27;2.07;;;1.50;;
14096;SDS011;7125;48.106;11.544;2023-04-25T13:46:09;2.43;;;1.27;;
14096;SDS011;7125;48.106;11.544;2023-04-25T13:48:38;1.20;;;0.83;;
14096;SDS011;7125;48.106;11.544;2023-04-25T13:51:06;1.10;;;0.63;;
14096;SDS011;7125;48.106;11.544;2023-04-25T13:53:34;0.73;;;0.73;;
14096;SDS011;7125;48.106;11.544;2023-04-25T13:56:02;0.50;;;0.50;;
14096;SDS011;7125;48.106;11.544;2023-04-25T13:58:31;0.93;;;0.70;;
14096;SDS011;7125;48.106;11.544;2023-04-25T14:01:00;0.53;;;0.50;;
14096;SDS011;7125;48.106;11.544;2023-04-25T14:03:30;0.63;;;0.40;;
14096;SDS011;7125;48.106;11.544;2023-04-25T14:05:58;0.50;;;0.50;;
14096;SDS011;7125;48.106;11.544;2023-04-25T14:08:32;0.83;;;0.50;;
14096;SDS011;7125;48.106;11.544;2023-04-25T14:10:59;0.93;;;0.80;;
14096;SDS011;7125;48.106;11.544;2023-04-25T14:13:26;1.60;;;0.70;;
14096;SDS011;7125;48.106;11.544;2023-04-25T14:15:58;0.60;;;0.60;;
14096;SDS011;7125;48.106;11.544;2023-04-25T14:18:25;2.67;;;1.17;;
14096;SDS011;7125;48.106;11.544;2023-04-25T14:20:54;1.07;;;0.97;;
14096;SDS011;7125;48.106;11.544;2023-04-25T14:23:21;1.47;;;1.17;;
14096;SDS011;7125;48.106;11.544;2023-04-25T14:25:49;1.10;;;0.67;;
14096;SDS011;7125;48.106;11.544;2023-04-25T14:28:16;0.73;;;0.60;;
14096;SDS011;7125;48.106;11.544;2023-04-25T14:30:44;0.70;;;0.50;;
14096;SDS011;7125;48.106;11.544;2023-04-25T14:33:13;2.23;;;1.00;;
14096;SDS011;7125;48.106;11.544;2023-04-25T14:35:40;0.80;;;0.60;;
14096;SDS011;7125;48.106;11.544;2023-04-25T14:38:07;0.80;;;0.80;;
14096;SDS011;7125;48.106;11.544;2023-04-25T14:40:34;1.30;;;0.80;;
14096;SDS011;7125;48.106;11.544;2023-04-25T14:43:03;0.77;;;0.77;;
14096;SDS011;7125;48.106;11.544;2023-04-25T14:45:30;0.60;;;0.57;;
14096;SDS011;7125;48.106;11.544;2023-04-25T14:47:57;1.33;;;0.90;;
14096;SDS011;7125;48.106;11.544;2023-04-25T14:50:28;1.57;;;0.90;;
14096;SDS011;7125;48.106;11.544;2023-04-25T14:53:10;2.60;;;0.80;;
14096;SDS011;7125;48.106;11.544;2023-04-25T14:55:38;1.60;;;0.70;;
14096;SDS011;7125;48.106;11.544;2023-04-25T14:58:05;0.80;;;0.80;;
14096;SDS011;7125;48.106;11.544;2023-04-25T15:00:33;0.97;;;0.70;;
14096;SDS011;7125;48.106;11.544;2023-04-25T15:03:00;0.93;;;0.50;;
14096;SDS011;7125;48.106;11.544;2023-04-25T15:05:30;0.57;;;0.57;;
14096;SDS011;7125;48.106;11.544;2023-04-25T15:07:57;1.37;;;0.70;;
14096;SDS011;7125;48.106;11.544;2023-04-25T15:10:24;0.53;;;0.40;;
14096;SDS011;7125;48.106;11.544;2023-04-25T15:12:51;0.47;;;0.47;;
14096;SDS011;7125;48.106;11.544;2023-04-25T15:15:19;0.30;;;0.30;;
14096;SDS011;7125;48.106;11.544;2023-04-25T15:17:47;0.40;;;0.37;;
14096;SDS011;7125;48.106;11.544;2023-04-25T15:20:15;0.93;;;0.53;;
14096;SDS011;7125;48.106;11.544;2023-04-25T15:22:45;0.80;;;0.80;;
14096;SDS011;7125;48.106;11.544;2023-04-25T15:25:14;0.70;;;0.70;;
14096;SDS011;7125;48.106;11.544;2023-04-25T15:27:48;0.90;;;0.80;;
14096;SDS011;7125;48.106;11.544;2023-04-25T15:30:17;0.97;;;0.80;;
14096;SDS011;7125;48.106;11.544;2023-04-25T15:32:45;0.63;;;0.60;;
14096;SDS011;7125;48.106;11.544;2023-04-25T15:35:13;1.30;;;1.20;;
14096;SDS011;7125;48.106;11.544;2023-04-25T15:37:44;1.03;;;0.93;;
14096;SDS011;7125;48.106;11.544;2023-04-25T15:40:14;0.90;;;0.80;;
14096;SDS011;7125;48.106;11.544;2023-04-25T15:42:42;1.87;;;1.10;;
14096;SDS011;7125;48.106;11.544;2023-04-25T15:45:12;2.37;;;1.20;;
14096;SDS011;7125;48.106;11.544;2023-04-25T15:47:41;0.87;;;0.80;;
14096;SDS011;7125;48.106;11.544;2023-04-25T15:50:12;1.27;;;1.17;;
14096;SDS011;7125;48.106;11.544;2023-04-25T15:52:48;1.43;;;1.33;;
14096;SDS011;7125;48.106;11.544;2023-04-25T16:54:42;2.53;;;2.33;;
14096;SDS011;7125;48.106;11.544;2023-04-25T16:57:10;4.93;;;4.43;;
14096;SDS011;7125;48.106;11.544;2023-04-25T16:59:37;2.63;;;2.43;;
14096;SDS011;7125;48.106;11.544;2023-04-25T17:02:06;2.63;;;2.43;;
14096;SDS011;7125;48.106;11.544;2023-04-25T17:04:37;3.57;;;3.20;;
14096;SDS011;7125;48.106;11.544;2023-04-25T17:09:46;2.57;;;2.37;;
14096;SDS011;7125;48.106;11.544;2023-04-25T17:12:13;3.07;;;2.33;;
14096;SDS011;7125;48.106;11.544;2023-04-25T17:14:40;2.37;;;2.17;;
14096;SDS011;7125;48.106;11.544;2023-04-25T17:17:08;2.90;;;2.67;;
14096;SDS011;7125;48.106;11.544;2023-04-25T17:19:36;3.87;;;3.47;;
14096;SDS011;7125;48.106;11.544;2023-04-25T17:22:05;3.20;;;2.73;;
14096;SDS011;7125;48.106;11.544;2023-04-25T17:24:32;2.70;;;2.40;;
14096;SDS011;7125;48.106;11.544;2023-04-25T17:27:02;2.60;;;2.40;;
14096;SDS011;7125;48.106;11.544;2023-04-25T17:29:30;3.67;;;3.07;;
14096;SDS011;7125;48.106;11.544;2023-04-25T17:31:59;3.03;;;2.73;;
14096;SDS011;7125;48.106;11.544;2023-04-25T17:34:28;2.90;;;2.60;;
14096;SDS011;7125;48.106;11.544;2023-04-25T17:36:56;3.33;;;3.03;;
14096;SDS011;7125;48.106;11.544;2023-04-25T17:42:08;3.47;;;2.47;;
14096;SDS011;7125;48.106;11.544;2023-04-25T17:44:36;3.23;;;2.93;;
14096;SDS011;7125;48.106;11.544;2023-04-25T17:47:05;4.03;;;3.40;;
14096;SDS011;7125;48.106;11.544;2023-04-25T17:49:34;3.63;;;3.30;;
14096;SDS011;7125;48.106;11.544;2023-04-25T17:52:03;3.93;;;3.63;;
14096;SDS011;7125;48.106;11.544;2023-04-25T17:54:30;3.47;;;3.17;;
14096;SDS011;7125;48.106;11.544;2023-04-25T17:56:59;4.43;;;3.60;;
14096;SDS011;7125;48.106;11.544;2023-04-25T17:59:28;6.47;;;3.07;;
14096;SDS011;7125;48.106;11.544;2023-04-25T18:01:55;6.03;;;2.70;;
14096;SDS011;7125;48.106;11.544;2023-04-25T18:04:24;3.20;;;2.90;;
14096;SDS011;7125;48.106;11.544;2023-04-25T18:06:52;3.87;;;2.87;;
14096;SDS011;7125;48.106;11.544;2023-04-25T18:09:19;4.03;;;3.67;;
14096;SDS011;7125;48.106;11.544;2023-04-25T18:11:49;5.30;;;3.30;;
14096;SDS011;7125;48.106;11.544;2023-04-25T18:14:18;3.07;;;2.77;;
14096;SDS011;7125;48.106;11.544;2023-04-25T18:16:50;3.60;;;3.30;;
14096;SDS011;7125;48.106;11.544;2023-04-25T18:19:18;4.90;;;3.40;;
14096;SDS011;7125;48.106;11.544;2023-04-25T18:21:46;3.70;;;2.73;;
14096;SDS011;7125;48.106;11.544;2023-04-25T18:24:15;2.63;;;2.27;;
14096;SDS011;7125;48.106;11.544;2023-04-25T18:26:46;4.33;;;1.70;;
14096;SDS011;7125;48.106;11.544;2023-04-25T18:29:15;3.47;;;1.73;;
14096;SDS011;7125;48.106;11.544;2023-04-25T18:31:43;2.07;;;1.87;;
14096;SDS011;7125;48.106;11.544;2023-04-25T18:34:12;3.80;;;2.00;;
14096;SDS011;7125;48.106;11.544;2023-04-25T18:36:40;3.43;;;2.00;;
14096;SDS011;7125;48.106;11.544;2023-04-25T18:39:07;6.53;;;3.43;;
14096;SDS011;7125;48.106;11.544;2023-04-25T18:41:35;3.80;;;2.70;;
14096;SDS011;7125;48.106;11.544;2023-04-25T18:44:03;4.70;;;3.67;;
14096;SDS011;7125;48.106;11.544;2023-04-25T18:46:31;4.90;;;3.97;;
14096;SDS011;7125;48.106;11.544;2023-04-25T18:48:59;4.47;;;4.13;;
14096;SDS011;7125;48.106;11.544;2023-04-25T18:51:28;5.67;;;5.17;;
14096;SDS011;7125;48.106;11.544;2023-04-25T18:53:56;4.43;;;4.03;;
14096;SDS011;7125;48.106;11.544;2023-04-25T18:56:26;6.57;;;3.97;;
14096;SDS011;7125;48.106;11.544;2023-04-25T18:58:54;6.20;;;5.60;;
14096;SDS011;7125;48.106;11.544;2023-04-25T19:01:22;4.50;;;3.83;;
14096;SDS011;7125;48.106;11.544;2023-04-25T19:03:51;3.90;;;3.50;;
14096;SDS011;7125;48.106;11.544;2023-04-25T19:06:20;8.57;;;4.57;;
14096;SDS011;7125;48.106;11.544;2023-04-25T19:08:50;5.13;;;4.13;;
14096;SDS011;7125;48.106;11.544;2023-04-25T19:11:17;5.20;;;4.70;;
14096;SDS011;7125;48.106;11.544;2023-04-25T19:13:45;5.40;;;4.90;;
14096;SDS011;7125;48.106;11.544;2023-04-25T19:16:13;5.90;;;5.37;;
14096;SDS011;7125;48.106;11.544;2023-04-25T19:18:41;8.03;;;5.20;;
14096;SDS011;7125;48.106;11.544;2023-04-25T19:21:08;7.47;;;5.03;;
14096;SDS011;7125;48.106;11.544;2023-04-25T19:23:36;5.83;;;5.23;;
14096;SDS011;7125;48.106;11.544;2023-04-25T19:26:09;6.43;;;5.17;;
14096;SDS011;7125;48.106;11.544;2023-04-25T19:28:36;6.43;;;5.83;;
14096;SDS011;7125;48.106;11.544;2023-04-25T19:31:03;6.47;;;5.07;;
14096;SDS011;7125;48.106;11.544;2023-04-25T19:33:31;6.53;;;5.07;;
14096;SDS011;7125;48.106;11.544;2023-04-25T19:35:58;8.87;;;6.40;;
14096;SDS011;7125;48.106;11.544;2023-04-25T19:38:27;5.97;;;5.10;;
14096;SDS011;7125;48.106;11.544;2023-04-25T19:40:54;5.67;;;5.10;;
14096;SDS011;7125;48.106;11.544;2023-04-25T19:43:23;6.47;;;5.27;;
14096;SDS011;7125;48.106;11.544;2023-04-25T19:45:51;5.67;;;5.13;;
14096;SDS011;7125;48.106;11.544;2023-04-25T19:48:18;5.23;;;4.73;;
14096;SDS011;7125;48.106;11.544;2023-04-25T19:50:45;5.70;;;4.90;;
14096;SDS011;7125;48.106;11.544;2023-04-25T19:53:13;7.40;;;6.23;;
14096;SDS011;7125;48.106;11.544;2023-04-25T19:55:41;8.33;;;6.70;;
14096;SDS011;7125;48.106;11.544;2023-04-25T19:58:09;7.37;;;6.27;;
14096;SDS011;7125;48.106;11.544;2023-04-25T20:00:42;5.77;;;5.17;;
14096;SDS011;7125;48.106;11.544;2023-04-25T20:03:10;5.87;;;5.13;;
14096;SDS011;7125;48.106;11.544;2023-04-25T20:05:37;5.30;;;4.80;;
14096;SDS011;7125;48.106;11.544;2023-04-25T20:08:05;7.30;;;5.57;;
14096;SDS011;7125;48.106;11.544;2023-04-25T20:10:32;8.37;;;5.53;;
14096;SDS011;7125;48.106;11.544;2023-04-25T20:13:01;7.33;;;4.97;;
14096;SDS011;7125;48.106;11.544;2023-04-25T20:15:30;6.70;;;5.60;;
14096;SDS011;7125;48.106;11.544;2023-04-25T20:17:59;5.77;;;4.67;;
14096;SDS011;7125;48.106;11.544;2023-04-25T20:20:27;8.07;;;5.47;;
14096;SDS011;7125;48.106;11.544;2023-04-25T20:22:55;6.03;;;4.67;;